Data for 06/18/2016

Time Sea-Level Adjusted Pressure Absolute Pressure Temperature Relative Humidity Dew Point   
(mb) (inHg) (mb) (inHg) (C) (F) (%) (C) (F)
00:05 1021 30.15 850 25.1 15.7 60.3 42 3 37.4
00:10 1021 30.15 850 25.1 15.7 60.3 42 2.9 37.2
00:15 1021 30.15 850 25.1 15.7 60.2 43 3.1 37.6
00:20 1021 30.15 850 25.1 15.6 60.1 43 3 37.5
00:25 1021 30.15 850 25.1 15.5 60 44 3.3 37.9
00:30 1021 30.15 850 25.1 15.3 59.5 44 3.2 37.7
00:35 1021 30.15 850 25.1 15.1 59.3 45 3.3 37.9
00:40 1021 30.15 850 25.1 15 59.1 45 3.3 37.9
00:45 1021 30.15 850 25.1 15 59 45 3.3 37.9
00:50 1021 30.15 850 25.1 14.9 58.9 45 3.3 37.9
00:55 1021 30.15 850 25.1 14.9 58.8 45 3.3 37.9
01:00 1021 30.15 850 25.1 14.9 58.7 46 3.4 38
01:05 1021 30.15 851 25.13 14.9 58.7 45 3.2 37.8
01:10 1022 30.18 851 25.13 14.9 58.7 46 3.5 38.3
01:15 1022 30.18 851 25.13 14.8 58.6 46 3.4 38.1
01:20 1022 30.18 851 25.13 14.8 58.7 46 3.4 38.1
01:25 1022 30.18 851 25.13 14.8 58.7 46 3.6 38.4
01:30 1022 30.18 851 25.13 14.6 58.3 48 3.7 38.6
01:35 1022 30.18 851 25.13 14.4 57.9 48 3.5 38.3
01:40 1021 30.15 851 25.13 14.5 58.1 48 3.6 38.4
01:45 1021 30.15 851 25.13 14.4 57.9 48 3.5 38.2
01:50 1021 30.15 851 25.13 14.4 57.9 48 3.5 38.3
01:55 1021 30.15 851 25.13 14.3 57.8 48 3.5 38.2
02:00 1021 30.15 850 25.1 14.3 57.8 48 3.4 38.2
02:05 1021 30.15 850 25.1 14.3 57.7 48 3.5 38.2
02:10 1021 30.15 850 25.1 14.2 57.6 48 3.5 38.2
02:15 1021 30.15 850 25.1 14.2 57.5 48 3.5 38.2
02:20 1021 30.15 850 25.1 14.1 57.4 49 3.5 38.3
02:25 1021 30.15 850 25.1 14 57.3 49 3.4 38.2
02:30 1021 30.15 850 25.1 14 57.2 49 3.6 38.4
02:35 1021 30.15 850 25.1 13.9 57.1 49 3.5 38.3
02:40 1021 30.15 850 25.1 13.9 57 49 3.5 38.2
02:45 1021 30.15 850 25.1 14 57.1 49 3.6 38.4
02:50 1020 30.12 850 25.1 13.9 57 49 3.5 38.3
02:55 1021 30.15 850 25.1 13.9 57 49 3.5 38.4
03:00 1021 30.15 850 25.1 13.9 57 49 3.5 38.4
03:05 1021 30.15 850 25.1 14 57.1 49 3.5 38.3
03:10 1021 30.15 850 25.1 14 57.1 49 3.4 38.2
03:15 1021 30.15 850 25.1 14.1 57.4 48 3.3 38
03:20 1021 30.15 850 25.1 14.3 57.7 47 3.3 38
03:25 1021 30.15 850 25.1 14.3 57.7 48 3.5 38.3
03:30 1021 30.15 850 25.1 14.2 57.5 48 3.3 38
03:35 1021 30.15 850 25.1 14.1 57.5 48 3.4 38.1
03:40 1021 30.15 850 25.1 14.1 57.4 48 3.4 38.2
03:45 1021 30.15 850 25.1 14.1 57.3 48 3.4 38.1
03:50 1020 30.12 850 25.1 14 57.3 48 3.2 37.8
03:55 1020 30.12 850 25.1 14.1 57.3 48 3.4 38.1
04:00 1020 30.12 850 25.1 14 57.2 48 3.4 38
04:05 1020 30.12 849 25.07 13.9 57 48 3.3 38
04:10 1020 30.12 849 25.07 13.9 57 49 3.4 38.1
04:15 1020 30.12 849 25.07 13.8 56.9 49 3.3 37.9
04:20 1020 30.12 849 25.07 13.8 56.9 49 3.3 37.9
04:25 1020 30.12 849 25.07 13.8 56.8 49 3.3 38
04:30 1020 30.12 850 25.1 13.8 56.8 49 3.4 38.2
04:35 1021 30.15 850 25.1 13.6 56.5 50 3.4 38
04:40 1021 30.15 850 25.1 13.6 56.5 50 3.4 38.2
04:45 1021 30.15 850 25.1 13.6 56.4 50 3.4 38.1
04:50 1021 30.15 850 25.1 13.6 56.4 50 3.5 38.2
04:55 1021 30.15 850 25.1 13.5 56.3 50 3.4 38.1
05:00 1021 30.15 850 25.1 13.5 56.3 50 3.5 38.3
05:05 1021 30.15 850 25.1 13.5 56.3 51 3.5 38.3
05:10 1021 30.15 850 25.1 13.5 56.3 51 3.7 38.6
05:15 1021 30.15 850 25.1 13.4 56.1 52 3.8 38.8
05:20 1021 30.15 850 25.1 13.4 56 51 3.6 38.4
05:25 1021 30.15 850 25.1 13.5 56.3 51 3.5 38.4
05:30 1021 30.15 850 25.1 13.7 56.6 50 3.6 38.4
05:35 1021 30.15 850 25.1 13.7 56.6 50 3.6 38.5
05:40 1021 30.15 850 25.1 13.6 56.4 51 3.6 38.5
05:45 1021 30.15 850 25.1 13.6 56.4 51 3.7 38.7
05:50 1021 30.15 850 25.1 13.5 56.3 51 3.8 38.8
05:55 1021 30.15 850 25.1 13.5 56.3 54 4.3 39.8
06:00 1021 30.15 850 25.1 12.9 55.3 56 4.4 39.9
06:05 1021 30.15 850 25.1 12.5 54.5 56 4.1 39.3
06:10 1021 30.15 850 25.1 12.6 54.7 55 3.9 39.1
06:15 1021 30.15 850 25.1 12.9 55.2 54 4 39.1
06:20 1021 30.15 850 25.1 12.9 55.2 55 4.2 39.5
06:25 1021 30.15 850 25.1 13.2 55.8 54 4.1 39.3
06:30 1021 30.15 850 25.1 13.6 56.5 53 4.3 39.8
06:35 1021 30.15 850 25.1 13.8 56.8 53 4.3 39.8
06:40 1021 30.15 850 25.1 13.9 57 52 4.4 39.9
06:45 1021 30.15 850 25.1 14.6 58.3 50 4.5 40.1
06:50 1021 30.15 850 25.1 15.2 59.3 47 4.2 39.5
06:55 1021 30.15 850 25.1 15.5 59.9 48 4.6 40.3
07:00 1020 30.12 850 25.1 15.7 60.2 46 4.3 39.7
07:05 1021 30.15 850 25.1 16 60.7 47 4.8 40.7
07:10 1021 30.15 850 25.1 15.1 59.3 49 4.5 40.1
07:15 1021 30.15 850 25.1 14.7 58.5 49 4.3 39.8
07:20 1021 30.15 850 25.1 15.2 59.3 48 4.4 39.9
07:25 1020 30.12 850 25.1 14.9 58.8 49 4.4 40
07:30 1020 30.12 850 25.1 14.6 58.3 49 4.3 39.7
07:35 1020 30.12 850 25.1 15 59 48 4.3 39.7
07:40 1020 30.12 850 25.1 15.1 59.2 49 4.5 40
07:45 1020 30.12 849 25.07 15.8 60.4 47 4.5 40.1
07:50 1020 30.12 849 25.07 16.2 61.1 48 5.1 41.2
07:55 1020 30.12 849 25.07 16.2 61.1 47 4.9 40.8
08:00 1020 30.12 849 25.07 16.6 61.8 46 4.9 40.8
08:05 1020 30.12 849 25.07 16.3 61.3 46 4.7 40.5
08:10 1020 30.12 850 25.1 15.9 60.5 49 5.1 41.2
08:15 1020 30.12 849 25.07 15.5 59.9 49 4.8 40.7
08:20 1020 30.12 849 25.07 16.2 61.2 45 4.4 39.9
08:25 1020 30.12 849 25.07 17.3 63.2 43 4.6 40.3
08:30 1020 30.12 849 25.07 17.5 63.5 45 5.7 42.2
08:35 1020 30.12 849 25.07 17.7 63.9 42 4.9 40.9
08:40 1020 30.12 849 25.07 17.7 63.8 44 5.5 41.9
08:45 1020 30.12 849 25.07 17.3 63.2 44 5.2 41.4
08:50 1020 30.12 849 25.07 17.6 63.6 44 5.3 41.5
08:55 1020 30.12 849 25.07 17.7 63.9 45 5.8 42.5
09:00 1020 30.12 849 25.07 18 64.5 42 5 41
09:05 1020 30.12 849 25.07 18.8 65.8 41 5.4 41.8
09:10 1020 30.12 849 25.07 19 66.3 41 5.7 42.2
09:15 1020 30.12 849 25.07 19.5 67.2 40 5.8 42.5
09:20 1020 30.12 849 25.07 19.6 67.2 42 6.3 43.3
09:25 1020 30.12 849 25.07 19.2 66.5 40 5.6 42
09:30 1020 30.12 849 25.07 19.3 66.7 41 5.8 42.4
09:35 1020 30.12 849 25.07 19.5 67.1 41 6.2 43.1
09:40 1020 30.12 849 25.07 19.2 66.5 42 6 42.8
09:45 1020 30.12 849 25.07 19.4 66.8 42 6.3 43.4
09:50 1020 30.12 849 25.07 19.9 67.9 41 6.5 43.7
09:55 1020 30.12 849 25.07 19.8 67.7 42 6.8 44.2
10:00 1020 30.12 849 25.07 19.4 66.9 42 6.2 43.2
10:05 1020 30.12 849 25.07 19.8 67.6 40 5.8 42.5
10:10 1020 30.12 849 25.07 19.6 67.3 41 6.3 43.3
10:15 1020 30.12 849 25.07 20.3 68.5 40 6.5 43.6
10:20 1020 30.12 849 25.07 21.1 70 37 6.1 43
10:25 1019 30.09 849 25.07 20.9 69.6 38 6.2 43.1
10:30 1019 30.09 849 25.07 21.7 71 35 5.9 42.6
10:35 1019 30.09 849 25.07 21.8 71.3 37 6.9 44.4
10:40 1019 30.09 849 25.07 21.9 71.4 36 6.4 43.5
10:45 1019 30.09 849 25.07 21.9 71.5 35 6.1 43
10:50 1019 30.09 848 25.04 21.9 71.5 36 6.5 43.8
10:55 1019 30.09 848 25.04 22.2 72 35 6.1 42.9
11:00 1019 30.09 848 25.04 22.8 73.1 35 6.8 44.2
11:05 1019 30.09 848 25.04 23.6 74.4 33 6.7 44.1
11:10 1019 30.09 848 25.04 23.4 74.1 34 6.7 44
11:15 1019 30.09 848 25.04 22.8 73 36 7 44.6
11:20 1019 30.09 848 25.04 23.3 74 33 6.3 43.3
11:25 1019 30.09 848 25.04 23.5 74.3 34 6.8 44.2
11:30 1019 30.09 848 25.04 23.5 74.3 34 7.1 44.8
11:35 1019 30.09 848 25.04 24.8 76.6 31 6.9 44.4
11:40 1019 30.09 848 25.04 25.2 77.4 31 7.3 45.1
11:45 1019 30.09 848 25.04 25.3 77.5 29 6.1 43.1
11:50 1018 30.06 848 25.04 26.7 80.1 25 5.1 41.2
11:55 1018 30.06 847 25.01 27.2 80.9 21 3.1 37.6
12:00 1018 30.06 847 25.01 27.1 80.9 18 1.1 34
12:05 1018 30.06 847 25.01 27.7 81.8 24 5.8 42.4
12:10 1018 30.06 847 25.01 27.8 82.1 23 5.2 41.3
12:15 1018 30.06 847 25.01 27.2 81 15 -1.2 29.9
12:20 1018 30.06 847 25.01 28 82.4 13 -2.9 26.8
12:25 1018 30.06 847 25.01 28.1 82.5 12 -3.3 26.1
12:30 1018 30.06 847 25.01 28.1 82.5 13 -2.5 27.5
12:35 1018 30.06 847 25.01 28.1 82.6 13 -3 26.5
12:40 1018 30.06 847 25.01 28.3 82.9 13 -2.1 28.3
12:45 1018 30.06 847 25.01 28 82.4 13 -3 26.6
12:50 1018 30.06 847 25.01 27.9 82.2 12 -3.6 25.6
12:55 1018 30.06 847 25.01 28 82.3 12 -3.6 25.6
13:00 1017 30.03 847 25.01 28.1 82.6 13 -2.2 28
13:05 1017 30.03 847 25.01 28.5 83.2 12 -3.9 25
13:10 1017 30.03 847 25.01 28 82.5 12 -4 24.8
13:15 1017 30.03 846 24.98 28 82.4 12 -4.2 24.4
13:20 1017 30.03 846 24.98 28.1 82.5 13 -2.6 27.3
13:25 1017 30.03 846 24.98 28.6 83.5 12 -3.1 26.4
13:30 1017 30.03 846 24.98 28.6 83.5 12 -2.7 27.1
13:35 1017 30.03 846 24.98 28.9 84 12 -2.9 26.8
13:40 1017 30.03 846 24.98 28.7 83.6 12 -3.1 26.4
13:45 1017 30.03 846 24.98 28.6 83.5 12 -3.3 26.1
13:50 1017 30.03 846 24.98 28.7 83.7 12 -3.2 26.3
13:55 1017 30.03 846 24.98 28.4 83.1 12 -3.4 25.9
14:00 1017 30.03 846 24.98 28.4 83.1 12 -3.5 25.7
14:05 1017 30.03 846 24.98 28.4 83 12 -3.2 26.2
14:10 1017 30.03 846 24.98 28.4 83.2 12 -3.2 26.2
14:15 1017 30.03 846 24.98 28.5 83.3 12 -2.8 26.9
14:20 1017 30.03 846 24.98 28.3 82.9 12 -3.4 26
14:25 1017 30.03 846 24.98 28.5 83.4 12 -3.3 26
14:30 1017 30.03 846 24.98 28.4 83.2 12 -3.1 26.4
14:35 1017 30.03 846 24.98 28.6 83.4 12 -2.8 26.9
14:40 1017 30.03 846 24.98 28.5 83.3 13 -2.7 27.2
14:45 1017 30.03 846 24.98 28.6 83.4 11 -3.9 25
14:50 1017 30.03 846 24.98 28.6 83.6 11 -3.8 25.1
14:55 1017 30.03 846 24.98 28.8 83.8 12 -3.1 26.4
15:00 1017 30.03 846 24.98 28.7 83.6 12 -3.2 26.3
15:05 1017 30.03 846 24.98 29.1 84.3 13 -1.8 28.7
15:10 1017 30.03 846 24.98 29.1 84.4 12 -2.5 27.5
15:15 1017 30.03 846 24.98 29.2 84.5 12 -2.9 26.8
15:20 1017 30.03 846 24.98 29.1 84.3 11 -3.6 25.6
15:25 1017 30.03 846 24.98 28.9 84 12 -2.8 27
15:30 1017 30.03 846 24.98 28.9 84.1 13 -2.1 28.2
15:35 1017 30.03 846 24.98 29.1 84.4 13 -1.5 29.3
15:40 1017 30.03 846 24.98 29 84.2 12 -2.4 27.6
15:45 1017 30.03 846 24.98 29.2 84.6 13 -2.2 28
15:50 1017 30.03 846 24.98 28.9 84 13 -1.9 28.6
15:55 1017 30.03 846 24.98 28.6 83.5 13 -2.4 27.8
16:00 1017 30.03 846 24.98 27.9 82.2 14 -2.2 28
16:05 1017 30.03 846 24.98 27.7 81.9 13 -2.6 27.3
16:10 1017 30.03 846 24.98 28.1 82.5 13 -2.5 27.5
16:15 1017 30.03 846 24.98 28.2 82.8 12 -3.9 25.1
16:20 1017 30.03 846 24.98 28.1 82.5 13 -2.6 27.4
16:25 1017 30.03 846 24.98 27.9 82.2 14 -2.2 28.1
16:30 1017 30.03 846 24.98 28.1 82.5 13 -2.3 27.9
16:35 1017 30.03 846 24.98 28 82.4 14 -1.4 29.5
16:40 1017 30.03 846 24.98 28.2 82.7 14 -1.4 29.5
16:45 1017 30.03 846 24.98 28.3 82.9 13 -2.7 27.2
16:50 1017 30.03 846 24.98 28 82.3 14 -1.9 28.6
16:55 1017 30.03 846 24.98 28 82.4 13 -2.5 27.4
17:00 1017 30.03 846 24.98 27.9 82.2 13 -2.5 27.6
17:05 1017 30.03 846 24.98 28 82.3 14 -1.7 29
17:10 1017 30.03 846 24.98 28.1 82.5 14 -1.5 29.2
17:15 1017 30.03 846 24.98 27.7 81.9 15 -1.3 29.7
17:20 1017 30.03 846 24.98 27.7 81.8 14 -2.1 28.3
17:25 1017 30.03 846 24.98 27.4 81.3 13 -2.7 27.2
17:30 1017 30.03 846 24.98 27.4 81.3 13 -3.1 26.5
17:35 1017 30.03 846 24.98 27.2 80.9 14 -2.3 27.9
17:40 1017 30.03 846 24.98 26.9 80.4 14 -2.4 27.6
17:45 1017 30.03 846 24.98 26.8 80.2 14 -2.4 27.7
17:50 1017 30.03 846 24.98 26.9 80.4 14 -2.1 28.2
17:55 1017 30.03 846 24.98 26.9 80.4 15 -1.9 28.6
18:00 1017 30.03 846 24.98 26.8 80.2 15 -1.9 28.7
18:05 1017 30.03 846 24.98 26.7 80 15 -1.8 28.8
18:10 1017 30.03 846 24.98 26.6 80 15 -1.6 29.1
18:15 1017 30.03 846 24.98 26.5 79.8 16 -1.1 29.9
18:20 1017 30.03 847 25.01 26.4 79.6 18 0.2 32.4
18:25 1017 30.03 847 25.01 26.2 79.1 19 1.2 34.2
18:30 1017 30.03 847 25.01 25.8 78.4 20 1.4 34.5
18:35 1017 30.03 847 25.01 25.6 78.1 20 1.3 34.4
18:40 1017 30.03 847 25.01 25.5 77.9 21 1.5 34.7
18:45 1018 30.06 847 25.01 25.3 77.5 20 1.1 33.9
18:50 1018 30.06 847 25.01 25.1 77.2 19 -0.2 31.6
18:55 1018 30.06 847 25.01 25.1 77.2 19 0.2 32.4
19:00 1018 30.06 847 25.01 24.9 76.9 19 0.1 32.1
19:05 1018 30.06 847 25.01 24.8 76.6 19 -0.1 31.8
19:10 1018 30.06 847 25.01 24.7 76.5 19 -0.5 31.2
19:15 1018 30.06 847 25.01 24.7 76.4 19 -0.4 31.3
19:20 1018 30.06 847 25.01 24.6 76.3 18 -1.1 30.1
19:25 1018 30.06 847 25.01 24.8 76.6 17 -1.3 29.6
19:30 1018 30.06 847 25.01 24.9 76.9 18 -0.9 30.3
19:35 1018 30.06 847 25.01 24.8 76.7 18 -0.9 30.3
19:40 1018 30.06 847 25.01 24.8 76.6 18 -1.1 30
19:45 1018 30.06 847 25.01 24.7 76.4 18 -1.2 29.9
19:50 1018 30.06 847 25.01 24.6 76.3 19 -0.6 31
19:55 1018 30.06 847 25.01 24.5 76 19 -0.6 31
20:00 1018 30.06 847 25.01 24.3 75.8 19 -0.4 31.3
20:05 1018 30.06 847 25.01 24.1 75.3 20 0.1 32.1
20:10 1018 30.06 847 25.01 23.8 74.9 20 0 32.1
20:15 1018 30.06 847 25.01 23.7 74.7 20 -0.3 31.4
20:20 1018 30.06 848 25.04 23.5 74.3 22 0.6 33.1
20:25 1019 30.09 848 25.04 23.1 73.5 24 1.9 35.4
20:30 1018 30.06 848 25.04 22.4 72.3 29 3.5 38.2
20:35 1019 30.09 848 25.04 21.7 71.1 31 3.8 38.9
20:40 1019 30.09 848 25.04 21.4 70.4 32 4 39.2
20:45 1019 30.09 848 25.04 21.1 69.9 32 4.1 39.3
20:50 1019 30.09 848 25.04 20.9 69.7 33 4.3 39.8
20:55 1019 30.09 849 25.07 20.7 69.3 34 4.4 40
21:00 1020 30.12 849 25.07 20.5 69 34 4.5 40.1
21:05 1020 30.12 849 25.07 20.4 68.7 36 4.8 40.7
21:10 1020 30.12 849 25.07 20.3 68.6 35 4.7 40.4
21:15 1020 30.12 849 25.07 20.2 68.4 36 5 41
21:20 1020 30.12 850 25.1 20 68 39 5.7 42.3
21:25 1021 30.15 850 25.1 19.3 66.7 42 6.1 42.9
21:30 1021 30.15 850 25.1 18.9 66 42 5.7 42.3
21:35 1021 30.15 850 25.1 18.8 65.9 42 5.7 42.2
21:40 1021 30.15 850 25.1 18.9 66 41 5.4 41.7
21:45 1021 30.15 850 25.1 19.1 66.4 41 5.5 42
21:50 1021 30.15 850 25.1 19.2 66.5 41 5.6 42.1
21:55 1021 30.15 850 25.1 19.3 66.7 40 5.5 42
22:00 1021 30.15 850 25.1 19.3 66.7 41 5.7 42.2
22:05 1021 30.15 850 25.1 19.1 66.5 41 5.9 42.6
22:10 1021 30.15 850 25.1 18.8 65.9 42 5.7 42.2
22:15 1021 30.15 850 25.1 18.9 65.9 43 6 42.9
22:20 1021 30.15 850 25.1 18.6 65.5 43 6 42.9
22:25 1021 30.15 850 25.1 18.5 65.3 44 6 42.8
22:30 1021 30.15 850 25.1 18.6 65.4 42 5.6 42.1
22:35 1021 30.15 850 25.1 18.8 65.8 42 5.7 42.2
22:40 1021 30.15 850 25.1 18.7 65.7 43 5.9 42.7
22:45 1021 30.15 850 25.1 18.6 65.6 42 5.7 42.3
22:50 1021 30.15 850 25.1 18.6 65.4 43 5.9 42.6
22:55 1021 30.15 851 25.13 18.3 65 44 6 42.9
23:00 1021 30.15 850 25.1 18.2 64.8 45 6.1 42.9
23:05 1021 30.15 850 25.1 18 64.4 45 6.1 42.9
23:10 1021 30.15 851 25.13 17.9 64.3 46 6.2 43.2
23:15 1022 30.18 851 25.13 17.8 64 47 6.5 43.6
23:20 1021 30.15 851 25.13 17.5 63.5 49 6.8 44.2
23:25 1021 30.15 851 25.13 17.4 63.3 51 7.1 44.9
23:30 1021 30.15 850 25.1 17.2 63 51 7 44.6
23:35 1021 30.15 850 25.1 17.2 62.9 50 6.7 44.1
23:40 1021 30.15 851 25.13 17.2 63 49 6.6 43.8
23:45 1022 30.18 851 25.13 17.4 63.3 48 6.5 43.8
23:50 1022 30.18 851 25.13 17.5 63.5 48 6.4 43.5
23:55 1021 30.15 850 25.1 17.4 63.4 48 6.4 43.5
24:00 1021 30.15 850 25.1 17.3 63.1 49 6.5 43.7